Jemez Springs, Valles Caldera, New Mexico Weather observations

Data are for 10 minute period ending at time listed.
 Day   Time   Solar   Ave.   Ave.  Ave.  Vector  Max.   Baro.   Total    
  of    of     Rad.   Air    Rel.  Wind   Wind   Wind  Press.  Precip.   
Year   Day            Temp.  Hum.  Speed  Dir.   Gust                    
2014   (MST)  Kw/m2    F      %     mph   deg.    mph    mb.     in.     
-------------------------------------------------------------------------
 296    8:30   0.40   55.5    46    4.4    33     9.0   814.5    0.00 
 296    8:40   0.43   56.5    45    4.3    31     6.9   814.5    0.00 
 296    8:50   0.46   58.7    41    2.9    48     6.0   814.4    0.00 
 296    9:00   0.48   60.2    38    2.6   151     3.6   814.3    0.00 
 296    9:10   0.51   62.3    35    2.4   167     3.6   814.1    0.00 
 296    9:20   0.54   64.3    33    2.0   176     4.2   814.1    0.00 
 296    9:30   0.56   65.1    32    2.4   176     4.8   814.0    0.00 
 296    9:40   0.58   66.2    31    4.0   180     6.6   813.8    0.00 
 296    9:50   0.60   66.6    30    6.0   185     9.0   813.6    0.00 
 296   10:00   0.62   66.9    30    6.6   180     9.6   813.6    0.00 
 296   10:10   0.64   67.1    30    7.6   186    12.5   813.7    0.00 
 296   10:20   0.65   66.1    31    9.0   181    13.1   813.7    0.00 
 296   10:30   0.67   66.5    30    8.8   175    13.1   813.7    0.00 
 296   10:40   0.68   67.6    29    8.0   184    14.3   813.8    0.00 
 296   10:50   0.69   67.3    29    7.7   174    14.9   813.7    0.00 
 296   11:00   0.70   68.7    28    6.6   198    11.9   813.5    0.00 
 296   11:10   0.71   68.9    27    8.7   186    14.3   813.5    0.00 
 296   11:20   0.71   69.1    27    6.8   176    14.3   813.5    0.00 
 296   11:30   0.71   69.9    26    6.4   184    13.1   813.4    0.00 
 296   11:40   0.68   70.3    25    7.1   180    12.5   813.1    0.00 
 296   11:50   0.72   69.7    26    9.5   187    13.7   813.0    0.00 
 296   12:00   0.71   70.5    25    7.6   192    11.9   812.8    0.00 
 296   12:10   0.71   71.6    23    6.0   152    11.3   812.7    0.00 
 296   12:20   0.71   71.7    23    5.4   164    11.3   812.5    0.00 
 296   12:30   0.70   72.4    23    6.4   162    11.3   812.2    0.00 
 296   12:40   0.69   71.6    23    7.9   182    12.5   812.2    0.00 
 296   12:50   0.68   72.1    22    4.3   194     9.0   812.1    0.00 
 296   13:00   0.67   72.7    22    4.1    95    10.2   811.9    0.00 
 296   13:10   0.65   73.5    22    5.2   218    11.3   811.8    0.00 
 296   13:20   0.64   73.2    21    4.1   109     7.8   811.7    0.00 
 296   13:30   0.62   73.6    21    5.5   155    12.5   811.6    0.00 
 296   13:40   0.60   74.4    20    6.5   153    13.1   811.5    0.00 
 296   13:50   0.58   74.4    20    4.8   293    13.7   811.5    0.00 
 296   14:00   0.56   74.5    20    5.0   343    12.5   811.7    0.00 
 296   14:10   0.54   74.2    20    8.3   175    17.9   811.4    0.00 
 296   14:20   0.51   74.4    20    6.0    33    11.9   811.6    0.00 
 296   14:30   0.49   73.9    20    6.7    63    14.9   811.6    0.00 
 296   14:40   0.45   74.8    19    3.6    13    10.2   811.5    0.00 
 296   14:50   0.40   74.9    18    8.6     4    19.1   811.6    0.00 
 296   15:00   0.35   74.2    18    5.0   288     9.0   811.6    0.00 
 296   15:10   0.30   75.3    18    3.4   308     6.6   811.6    0.00 
 296   15:20   0.25   74.2    18    5.8    34    12.8   811.5    0.00 
 296   15:30   0.21   72.7    19    5.8    18    10.8   811.5    0.00 
 296   15:40   0.18   71.9    19    7.0   348    19.7   811.5    0.00 
 296   15:50   0.16   71.4    19    5.1   354    11.3   811.4    0.00 
 296   16:00   0.07   70.4    20    6.2   359    11.3   811.4    0.00 
 296   16:10   0.02   69.7    20    7.5     5    14.3   811.4    0.00 
 296   16:20   0.02   69.3    21    6.5   348    12.5   811.6    0.00 
 296   16:30   0.02   68.7    22    6.7     7    13.1   811.7    0.00 
 296   16:40   0.01   68.4    22    6.1     2    11.3   811.8    0.00 
 296   16:50   0.01   68.2    23    5.3     3    10.8   811.9    0.00 
 296   17:00   0.01   67.7    24    3.5     8     7.2   812.0    0.00 
 296   17:10   0.01   67.2    25    5.1    17    10.2   812.2    0.00 
 296   17:20   0.01   67.0    26    4.3     8    13.1   812.3    0.00 
 296   17:30   0.00   66.1    27    3.2    12     6.0   812.4    0.00 
 296   17:40   0.00   65.1    28    3.1     4     7.8   812.5    0.00 
 296   17:50   0.00   64.5    28    3.5   340    10.8   812.7    0.00 
 296   18:00   0.00   64.1    29    2.4   343     5.4   812.8    0.00 
 296   18:10   0.00   61.8    32    2.7    28     4.8   813.0    0.00 
 296   18:20   0.00   59.8    35    3.8    27     6.0   813.1    0.00 
 296   18:30   0.00   58.2    37    3.9    20     6.0   813.1    0.00 
 296   18:40   0.00   57.1    38    3.5    33     5.4   813.2    0.00 
 296   18:50   0.00   56.2    40    4.4    22     7.2   813.3    0.00 
 296   19:00   0.00   56.4    39    3.3   348     6.6   813.5    0.00 
 296   19:10   0.00   56.0    40    3.2     1     6.0   813.5    0.00 
 296   19:20   0.00   55.2    41    4.4     9     6.0   813.7    0.00 
 296   19:30   0.00   54.9    42    4.3     8     7.8   813.7    0.00 
 296   19:40   0.00   55.2    41    5.4    15     8.4   813.8    0.00 
 296   19:50   0.00   55.0    41    5.3    11     9.0   814.0    0.00 
 296   20:00   0.00   54.5    42    5.9    15     9.6   814.2    0.00 
 296   20:10   0.00   53.9    43    6.4    12     9.6   814.2    0.00 
 296   20:20   0.00   53.0    45    6.9    19    10.8   814.3    0.00 
 296   20:30   0.00   53.1    44    6.2     3    10.2   814.3    0.00 
 296   20:40   0.00   53.5    44    6.8   355    11.3   814.3    0.00 
 296   20:50   0.00   53.4    44    7.1   351    12.5   814.4    0.00 
 296   21:00   0.00   53.2    44    7.7   358    14.9   814.5    0.00 
 296   21:10   0.00   53.0    44    8.0     1    14.9   814.4    0.00 
 296   21:20   0.00   52.6    45    7.7     1    12.5   814.4    0.00 
 296   21:30   0.00   52.3    46    7.8    11    13.1   814.4    0.00 
 296   21:40   0.00   52.1    46    7.3    14    12.5   814.5    0.00 
 296   21:50   0.00   52.7    45    8.7    11    14.3   814.6    0.00 
 296   22:00   0.00   52.2    46    8.2    17    11.9   814.6    0.00 
 296   22:10   0.00   52.2    46    8.6    11    13.1   814.6    0.00 
 296   22:20   0.00   52.0    46    7.2    16    11.3   814.6    0.00 
 296   22:30   0.00   51.9    46    7.9     6    11.9   814.7    0.00 
 296   22:40   0.00   51.9    46    8.4     7    12.5   814.8    0.00 
 296   22:50   0.00   51.6    46    6.9   360    11.3   814.8    0.00 
 296   23:00   0.00   51.5    46    7.8     4    11.9   814.8    0.00 
 296   23:10   0.00   51.3    45    7.4   360    12.5   814.9    0.00 
 296   23:20   0.00   51.2    44    7.6   360    11.9   814.9    0.00 
 296   23:30   0.00   51.4    44    7.9     1    13.1   814.9    0.00 
 296   23:40   0.00   51.0    44    8.3     9    13.1   814.9    0.00 
 296   23:50   0.00   50.4    45    7.3     4    13.1   815.0    0.00 
 297    0:00   0.00   50.1    45    6.5     1    10.8   815.0    0.00 
 297    0:10   0.00   50.0    45    6.0   359    10.8   815.0    0.00 
 297    0:20   0.00   49.9    45    7.6     5    14.3   815.0    0.00 
 297    0:30   0.00   49.8    44    7.6     3    13.7   815.0    0.00 
 297    0:40   0.00   49.9    43    6.5   359    11.9   815.0    0.00 
 297    0:50   0.00   49.7    43    6.9   356    11.3   815.0    0.00 
 297    1:00   0.00   49.5    43    6.6     3    13.7   815.0    0.00 
 297    1:10   0.00   49.2    44    5.2     2    10.8   815.0    0.00 
 297    1:20   0.00   48.9    44    5.8   358    10.8   815.0    0.00 
 297    1:30   0.00   48.8    44    8.0    12    13.1   815.0    0.00 
 297    1:40   0.00   48.8    44    6.6     5    11.3   815.0    0.00 
 297    1:50   0.00   48.7    44    6.5   360    10.8   815.0    0.00 
 297    2:00   0.00   48.6    44    7.4   355    13.1   814.9    0.00 
 297    2:10   0.00   48.6    44    8.2   356    13.7   814.9    0.00 
 297    2:20   0.00   48.1    45    7.1     2    16.1   814.8    0.00 
 297    2:30   0.00   48.1    45    7.4   358    14.3   814.7    0.00 
 297    2:40   0.00   48.0    46    7.9     3    16.7   814.6    0.00 
 297    2:50   0.00   48.0    46    7.4     0    13.1   814.6    0.00 
 297    3:00   0.00   47.9    46    8.4    16    17.9   814.6    0.00 
 297    3:10   0.00   48.0    46    8.1    18    17.9   814.6    0.00 
 297    3:20   0.00   47.9    47    7.7     3    13.7   814.6    0.00 
 297    3:30   0.00   47.5    47    6.8     6    14.9   814.5    0.00 
 297    3:40   0.00   47.4    48    7.2     4    12.5   814.5    0.00 
 297    3:50   0.00   47.2    48    5.8     9     9.6   814.5    0.00 
 297    4:00   0.00   47.4    48    5.9     2    13.1   814.5    0.00 
 297    4:10   0.00   47.6    47    5.9     1    11.3   814.4    0.00 
 297    4:20   0.00   47.9    46    5.3    10    11.9   814.4    0.00 
 297    4:30   0.00   47.7    46    4.2   345     7.2   814.6    0.00 
 297    4:40   0.00   47.6    46    4.3   319     8.4   814.8    0.00 
 297    4:50   0.00   46.3    49    2.1   355     3.6   815.0    0.00 
 297    5:00   0.00   43.4    55    0.5   212     3.0   815.0    0.00 
 297    5:10   0.00   42.3    59    3.8    17     6.6   814.9    0.00 
 297    5:20   0.00   44.9    52    5.3    14     8.4   814.9    0.00 
 297    5:30   0.00   45.5    51    5.8    12    12.5   815.0    0.00 
 297    5:40   0.00   45.9    50    6.9    12    11.3   815.1    0.00 
 297    5:50   0.00   45.7    50    6.5   357    12.5   815.1    0.00 
 297    6:00   0.00   45.3    51    6.4   359    11.9   815.1    0.00 
 297    6:10   0.00   45.1    50    4.2   359    10.2   815.2    0.00 
 297    6:20   0.00   45.3    50    5.2   347    11.9   815.3    0.00 
 297    6:30   0.00   45.4    49    7.0   346    13.7   815.4    0.00 
 297    6:40   0.00   45.2    49    6.5   354    12.5   815.4    0.00 
 297    6:50   0.00   45.3    48    6.3   349    11.9   815.5    0.00 
 297    7:00   0.01   45.5    48    7.4   358    13.7   815.6    0.00 
 297    7:10   0.01   45.5    48    5.8     8    13.1   815.7    0.00 
 297    7:20   0.00   45.0    49    5.8    17    12.8   815.9    0.00 
 297    7:30   0.00   44.9    49    4.5     7     8.4   816.0    0.00 
 297    7:40   0.01   45.8    48    5.2    11    10.8   816.0    0.00 
 297    7:50   0.18   48.8    43    5.7    14    11.3   816.1    0.00 
 297    8:00   0.30   51.8    39    5.7     2    10.2   816.1    0.00 
 297    8:10   0.33   54.1    35    6.6     7    12.5   816.1    0.00 
 297    8:20   0.36   55.0    34    5.9    26    11.3   816.1    0.00 

Return to Jemez Springs, Valles Caldera graphs page.


Western Regional Climate Center,wrcc@dri.edu